Baudette, MN

02:02 CST le 14 février 2016 (GMT -0600)
Baudette International | | Change Station
CLOSE
Current Station
Aéroport
Location: Baudette,
Altitude: 1083 ft
Stations météo à proximité

Alt. 1083 ft 48.73 °N, 94.61 °W | Updated 9 minutes ago

Couvert
Couvert
2 ° F
Paraît -15 ° F
N
12
Vent Variable Vent de SE

Aujourd'hui
Haut(e) -- | Bas -- ° F
--% Risque de précip.
Hier
Haut(e) -- | Bas -- ° F
Precip. -- pouce
Pression 30.18 pouce
Visibilité 10.0 Miles terrestres
Nuages Peu 3600 ft
Couvert 6000 ft
Refroidissement éolien -15 ° F
Point de rosée -11 ° F
Humidité 55%
Précipitations 0.00 pouce
Profondeur de la couche neigeuse Non disponible.
7:29 AM 5:38 PM
Lune montante, 39% visible
METAR KBDE 140753Z AUTO 14010KT 10SM FEW036 OVC060 M17/M24 A3008 RMK AO2 SLP219 T11671239 TSNO
Pression 30.18 pouce
Visibilité 10.0 Miles terrestres
Nuages Peu 3600 ft
Couvert 6000 ft
Refroidissement éolien -15 ° F
Point de rosée -11 ° F
Humidité 55%
Précipitations 0.00 pouce
Profondeur de la couche neigeuse Non disponible.
7:29 AM 5:38 PM
Lune montante, 39% visible
METAR KBDE 140753Z AUTO 14010KT 10SM FEW036 OVC060 M17/M24 A3008 RMK AO2 SLP219 T11671239 TSNO

10-Day Weather Forecast

Almanac

Astronomie

Feb. 14, 2016 Lever Coucher
Temps réel
Crépuscule civil
Crépuscule nautique
Crépuscule astronomique
Lune
Durée de lumière visible
Longueur du jour
Tomorrow will be .
, % of the Moon is Illuminated

Extrêmes aujourd'hui

State Highs State Lows

Community

WunderPhotos

Upload Photos

1,892,757 Photos téléchargées !

WunderBlog® & News

Nearby

Qualité de l'air

  Qualité de l'air Indice de la qualité de l'air Polluant
Not available.

Épaisseur de neige

Station Depth Altitude

Activité sismique

Ville Distance Mag. Time & Date
Minimum magnitude displayed is 2.5.

Températures des eaux côtières

Lieu Température

Stations

Stations météo à proximité

Emplacement de la station Température Refroidissement éolien Point de rosée Humidité Vent Precip. Alt. Mise à jour Type
                   

Watches & Warnings

There are currently no watches in effect.